Time;durP1;ratioP1;P1;durP2;ratioP2;P2;SDS_P1;SDS_P2;PMS_P1;PMS_P2;Temp;Humidity;BMP_temperature;BMP_pressure;BME280_temperature;BME280_humidity;BME280_pressure;Samples;Min_cycle;Max_cycle;Signal;HPM_P1;HPM_P2
2021/04/18 00:00:50;;;;;;;41.70;26.60;;;;;;;7.21;85.57;100870.73;105453;1108;78971;-65
2021/04/18 00:02:56;;;;;;;41.50;25.90;;;;;;;7.22;85.36;100875.11;105439;1108;78766;-65
2021/04/18 00:05:08;;;;;;;38.90;25.60;;;;;;;7.27;85.49;100873.64;105459;1108;77274;-65
2021/04/18 00:07:14;;;;;;;42.10;26.60;;;;;;;7.28;85.47;100869.94;104806;1111;78470;-65
2021/04/18 00:09:22;;;;;;;42.60;27.30;;;;;;;7.31;85.31;100871.47;105435;1108;77839;-65
2021/04/18 00:11:31;;;;;;;47.40;28.30;;;;;;;7.32;85.17;100868.64;105463;1108;78374;-66
2021/04/18 00:13:36;;;;;;;43.60;28.10;;;;;;;7.36;85.48;100880.75;105458;1108;77666;-66
2021/04/18 00:15:44;;;;;;;45.30;27.60;;;;;;;7.35;85.19;100880.91;105425;1108;78711;-62
2021/04/18 00:17:49;;;;;;;41.00;25.70;;;;;;;7.33;85.01;100882.92;105485;1107;79136;-60
2021/04/18 00:19:54;;;;;;;43.60;28.80;;;;;;;7.34;85.08;100881.91;104778;1111;77652;-64
2021/04/18 00:22:00;;;;;;;41.80;28.20;;;;;;;7.34;84.96;100869.31;104802;1111;78346;-64
2021/04/18 00:24:06;;;;;;;46.60;29.10;;;;;;;7.33;84.84;100867.66;105448;1103;78509;-64
2021/04/18 00:26:14;;;;;;;43.30;27.50;;;;;;;7.32;84.97;100865.10;105405;1108;77292;-64
2021/04/18 00:28:19;;;;;;;42.60;28.10;;;;;;;7.31;85.12;100868.78;105439;1108;78942;-64
2021/04/18 00:30:26;;;;;;;43.50;28.00;;;;;;;7.33;85.07;100862.27;105433;1108;78929;-61
2021/04/18 00:32:34;;;;;;;43.40;28.90;;;;;;;7.31;85.08;100868.78;105409;1108;78294;-60
2021/04/18 00:34:42;;;;;;;43.90;29.90;;;;;;;7.36;84.83;100869.99;105436;1108;77587;-61
2021/04/18 00:36:47;;;;;;;46.00;30.80;;;;;;;7.39;85.00;100860.80;105446;1107;78150;-61
2021/04/18 00:38:52;;;;;;;45.70;29.00;;;;;;;7.40;84.74;100859.78;104833;1110;79531;-61
2021/04/18 00:40:58;;;;;;;50.20;31.60;;;;;;;7.36;84.66;100853.87;105462;1107;78881;-61
2021/04/18 00:43:04;;;;;;;43.10;27.90;;;;;;;7.40;84.98;100857.94;105458;1108;78896;-61
2021/04/18 00:45:12;;;;;;;44.10;27.30;;;;;;;7.39;84.75;100850.05;105429;1108;77466;-61
2021/04/18 00:47:18;;;;;;;42.10;27.50;;;;;;;7.42;85.04;100845.18;105422;1108;77715;-61
2021/04/18 00:49:23;;;;;;;35.20;24.20;;;;;;;7.38;85.26;100837.61;105488;1102;77294;-62
2021/04/18 00:51:28;;;;;;;43.70;26.70;;;;;;;7.40;85.17;100849.88;105441;1108;77466;-66
2021/04/18 00:53:33;;;;;;;38.20;24.60;;;;;;;7.38;85.25;100849.20;105460;1108;77947;-65
2021/04/18 00:55:44;;;;;;;40.20;25.30;;;;;;;7.30;85.06;100846.46;105485;1107;77189;-61
2021/04/18 00:57:49;;;;;;;43.00;25.70;;;;;;;7.30;84.88;100841.09;105454;1108;79551;-61
2021/04/18 00:59:56;;;;;;;43.70;26.60;;;;;;;7.36;85.15;100853.87;105446;1108;77160;-65
2021/04/18 01:02:01;;;;;;;43.80;26.70;;;;;;;7.40;85.01;100851.72;105434;1107;78211;-65
2021/04/18 01:04:07;;;;;;;45.00;27.00;;;;;;;7.37;85.20;100850.19;105490;1108;79449;-66
2021/04/18 01:06:15;;;;;;;43.00;26.20;;;;;;;7.35;85.18;100840.60;105436;1108;77842;-65
2021/04/18 01:08:20;;;;;;;42.10;26.10;;;;;;;7.37;85.19;100844.81;105427;1108;79269;-66
2021/04/18 01:10:25;;;;;;;41.50;26.70;;;;;;;7.35;85.23;100846.83;105449;1107;78886;-65
2021/04/18 01:12:30;;;;;;;42.30;25.80;;;;;;;7.40;84.79;100844.50;105449;1108;77331;-66
2021/04/18 01:14:35;;;;;;;43.70;27.80;;;;;;;7.41;85.13;100843.52;105475;1107;76689;-66
2021/04/18 01:16:43;;;;;;;43.40;27.30;;;;;;;7.45;85.16;100839.49;105453;1108;78336;-65
2021/04/18 01:18:48;;;;;;;48.60;28.90;;;;;;;7.45;84.94;100838.64;105508;1102;77670;-65
2021/04/18 01:21:08;;;;;;;45.80;28.00;;;;;;;7.48;84.88;100835.64;104791;1111;78012;-66
2021/04/18 01:23:13;;;;;;;45.70;27.80;;;;;;;7.50;85.02;100841.69;105480;1108;78473;-66
2021/04/18 01:25:22;;;;;;;44.60;27.20;;;;;;;7.51;84.89;100840.70;105461;1107;77522;-66
2021/04/18 01:27:27;;;;;;;46.60;28.30;;;;;;;7.49;84.85;100835.50;105408;1108;78757;-64
2021/04/18 01:29:35;;;;;;;51.50;29.70;;;;;;;7.50;84.70;100829.10;105476;1107;78090;-66
2021/04/18 01:31:41;;;;;;;50.40;27.50;;;;;;;7.51;84.79;100835.33;105426;1108;77274;-66
2021/04/18 01:33:47;;;;;;;51.30;29.90;;;;;;;7.45;84.62;100833.27;105435;1107;78185;-64
2021/04/18 01:35:52;;;;;;;48.80;29.20;;;;;;;7.44;85.03;100832.45;105472;1108;77848;-64
2021/04/18 01:37:57;;;;;;;50.00;28.00;;;;;;;7.47;84.85;100832.11;105441;1108;77613;-64
2021/04/18 01:40:03;;;;;;;47.50;27.30;;;;;;;7.47;84.65;100832.11;104828;1111;77738;-61
2021/04/18 01:42:09;;;;;;;48.30;29.10;;;;;;;7.46;84.70;100830.44;105454;1108;78020;-61
2021/04/18 01:44:15;;;;;;;44.30;27.10;;;;;;;7.37;84.77;100823.31;105453;1108;78673;-61
2021/04/18 01:46:21;;;;;;;46.20;26.80;;;;;;;7.37;84.70;100827.84;105449;1108;78576;-61
2021/04/18 01:48:26;;;;;;;45.30;27.30;;;;;;;7.36;84.40;100824.30;105434;1108;78042;-61
2021/04/18 01:50:32;;;;;;;44.10;26.10;;;;;;;7.29;84.24;100823.27;105432;1108;78253;-64
2021/04/18 01:52:38;;;;;;;45.50;26.60;;;;;;;7.21;84.68;100822.36;105443;1108;78711;-64
2021/04/18 01:54:46;;;;;;;44.40;26.10;;;;;;;7.23;84.69;100826.58;105411;1108;78304;-64
2021/04/18 01:56:51;;;;;;;48.60;26.80;;;;;;;7.25;84.65;100827.25;105419;1108;78568;-61
2021/04/18 01:58:56;;;;;;;50.90;27.10;;;;;;;7.24;84.52;100827.42;105427;1108;77863;-61
2021/04/18 02:01:01;;;;;;;53.60;28.20;;;;;;;7.23;84.67;100823.89;105427;1108;78974;-64
2021/04/18 02:03:07;;;;;;;54.50;28.20;;;;;;;7.27;84.55;100819.91;105441;1108;77746;-64
2021/04/18 02:05:15;;;;;;;53.40;28.20;;;;;;;7.27;84.82;100819.91;105478;1107;78030;-61
2021/04/18 02:07:23;;;;;;;55.60;29.10;;;;;;;7.25;84.58;100819.19;105455;1107;78537;-61
2021/04/18 02:09:30;;;;;;;49.50;26.80;;;;;;;7.24;84.55;100819.36;105442;1108;77841;-61
2021/04/18 02:11:39;;;;;;;52.20;28.70;;;;;;;7.21;84.68;100815.16;105458;1108;77847;-61
2021/04/18 02:13:47;;;;;;;53.40;27.80;;;;;;;7.20;84.46;100815.32;105471;1108;78140;-60
2021/04/18 02:15:52;;;;;;;52.50;27.60;;;;;;;7.21;84.54;100823.21;105479;1107;78087;-65
2021/04/18 02:17:58;;;;;;;51.20;27.50;;;;;;;7.18;84.66;100815.46;105462;1108;77887;-65
2021/04/18 02:20:03;;;;;;;48.50;27.80;;;;;;;7.14;84.39;100817.61;105474;1108;78320;-64
2021/04/18 02:22:09;;;;;;;47.00;26.70;;;;;;;7.14;84.68;100814.92;105438;1108;79413;-66
2021/04/18 02:24:14;;;;;;;51.00;27.50;;;;;;;7.18;84.55;100820.84;105413;1108;78441;-66
2021/04/18 02:26:19;;;;;;;48.00;25.80;;;;;;;7.15;84.43;100821.15;105468;1102;78064;-66
2021/04/18 02:28:24;;;;;;;49.50;27.60;;;;;;;7.18;84.70;100819.98;105463;1108;78343;-66
2021/04/18 02:30:32;;;;;;;52.10;26.90;;;;;;;7.08;84.55;100820.95;105440;1108;78233;-61
2021/04/18 02:32:37;;;;;;;47.10;27.30;;;;;;;7.10;84.67;100818.09;105440;1108;77349;-61
2021/04/18 02:34:43;;;;;;;47.10;26.40;;;;;;;7.12;84.63;100816.08;105436;1108;78716;-61
2021/04/18 02:36:48;;;;;;;48.70;28.10;;;;;;;7.20;84.90;100813.45;105420;1107;77741;-62
2021/04/18 02:38:53;;;;;;;52.50;27.10;;;;;;;7.22;84.52;100821.38;105455;1108;78073;-62
2021/04/18 02:40:58;;;;;;;46.70;25.00;;;;;;;7.23;84.70;100815.83;105469;1108;78238;-66
2021/04/18 02:43:08;;;;;;;48.30;26.50;;;;;;;7.19;84.69;100814.48;105425;1108;78909;-66
2021/04/18 02:45:15;;;;;;;51.60;26.90;;;;;;;7.17;84.57;100818.32;105424;1108;79408;-65
2021/04/18 02:47:20;;;;;;;52.30;26.70;;;;;;;7.02;84.52;100816.20;105433;1108;77083;-65
2021/04/18 02:49:25;;;;;;;49.50;27.20;;;;;;;7.06;84.56;100822.08;105463;1108;77524;-65
2021/04/18 02:51:31;;;;;;;48.60;25.60;;;;;;;7.06;84.88;100827.45;105468;1101;77259;-62
2021/04/18 02:53:36;;;;;;;46.70;26.30;;;;;;;7.10;84.73;100826.15;105422;1108;77394;-62
2021/04/18 02:55:44;;;;;;;45.20;25.10;;;;;;;7.06;84.62;100828.30;105482;1108;79747;-65
2021/04/18 02:57:52;;;;;;;46.50;26.30;;;;;;;7.02;84.85;100826.94;105438;1108;78474;-66
2021/04/18 02:59:57;;;;;;;48.30;26.50;;;;;;;7.07;84.79;100827.31;105464;1108;77762;-66
2021/04/18 03:02:03;;;;;;;46.40;25.50;;;;;;;7.05;84.76;100825.78;105455;1108;78579;-66
2021/04/18 03:04:08;;;;;;;52.00;26.40;;;;;;;7.00;84.31;100823.55;105345;1108;76885;-66
2021/04/18 03:06:13;;;;;;;48.00;25.00;;;;;;;7.01;84.78;100824.39;104800;1111;78330;-66
2021/04/18 03:08:18;;;;;;;44.80;23.80;;;;;;;7.03;84.46;100827.80;104789;1110;78123;-66
2021/04/18 03:10:27;;;;;;;46.60;25.00;;;;;;;7.05;84.71;100826.63;104809;1110;77519;-61
2021/04/18 03:12:32;;;;;;;50.60;26.70;;;;;;;6.99;84.73;100834.46;104803;1110;77328;-61
2021/04/18 03:14:38;;;;;;;47.80;25.50;;;;;;;7.01;84.76;100829.77;104727;1110;78103;-59
2021/04/18 03:16:43;;;;;;;47.20;26.30;;;;;;;6.99;84.59;100831.77;104787;1110;76903;-59
2021/04/18 03:18:48;;;;;;;47.90;24.90;;;;;;;7.01;84.60;100832.45;104774;1111;78797;-60
2021/04/18 03:20:53;;;;;;;43.60;24.90;;;;;;;6.97;84.40;100834.63;104705;1111;78447;-59
2021/04/18 03:22:58;;;;;;;45.40;25.20;;;;;;;6.97;84.86;100831.09;104836;1111;78667;-59
2021/04/18 03:25:04;;;;;;;45.30;25.00;;;;;;;6.94;84.43;100821.51;104764;1110;78191;-59
2021/04/18 03:27:10;;;;;;;44.20;25.10;;;;;;;6.94;84.59;100826.03;104747;1110;76977;-59
2021/04/18 03:29:15;;;;;;;51.20;26.30;;;;;;;6.93;84.74;100827.02;104762;1110;78015;-59
2021/04/18 03:31:23;;;;;;;45.30;24.50;;;;;;;6.91;84.90;100824.50;104751;1110;78170;-66
2021/04/18 03:33:28;;;;;;;47.60;26.20;;;;;;;6.90;84.69;100833.55;104773;1110;77530;-66
2021/04/18 03:35:33;;;;;;;46.40;24.80;;;;;;;6.90;84.84;100828.17;104790;1111;77908;-59
2021/04/18 03:37:38;;;;;;;49.70;26.20;;;;;;;6.97;84.84;100833.78;104833;1111;77112;-59
2021/04/18 03:39:43;;;;;;;49.40;28.80;;;;;;;6.94;84.60;100839.45;104757;1110;77518;-59
2021/04/18 03:41:48;;;;;;;48.00;26.80;;;;;;;6.83;85.01;100835.17;104778;1111;77875;-68
2021/04/18 03:43:53;;;;;;;54.00;27.90;;;;;;;6.86;84.85;100831.34;104759;1111;77067;-66
2021/04/18 03:45:59;;;;;;;48.70;26.30;;;;;;;6.84;84.68;100842.21;104767;1110;77300;-66
2021/04/18 03:48:05;;;;;;;46.10;26.10;;;;;;;6.86;84.69;100834.02;104783;1110;78187;-66
2021/04/18 03:50:14;;;;;;;49.20;26.50;;;;;;;6.89;84.85;100837.25;104757;1111;78613;-58
2021/04/18 03:52:19;;;;;;;48.30;26.40;;;;;;;6.87;84.77;100839.22;104833;1103;77456;-58
2021/04/18 03:54:24;;;;;;;41.70;25.20;;;;;;;6.90;84.84;100843.44;104782;1111;78587;-58
2021/04/18 03:56:30;;;;;;;50.00;26.90;;;;;;;6.86;84.72;100850.13;104738;1110;77572;-59
2021/04/18 03:58:35;;;;;;;47.30;27.50;;;;;;;6.88;84.85;100840.92;104731;1110;77309;-58
2021/04/18 04:00:40;;;;;;;49.80;26.30;;;;;;;6.92;84.89;100844.97;104780;1110;77811;-58
2021/04/18 04:02:45;;;;;;;51.10;27.40;;;;;;;6.98;84.89;100838.13;104784;1111;79301;-58
2021/04/18 04:04:50;;;;;;;48.50;27.40;;;;;;;6.99;84.69;100839.83;104796;1111;77793;-59
2021/04/18 04:06:59;;;;;;;51.70;27.30;;;;;;;6.98;84.85;100847.04;104773;1103;78440;-59
2021/04/18 04:09:05;;;;;;;48.90;27.10;;;;;;;6.97;84.77;100849.89;104744;1110;77011;-59
2021/04/18 04:11:10;;;;;;;54.20;27.30;;;;;;;6.97;84.70;100852.58;104805;1110;77746;-59
2021/04/18 04:13:15;;;;;;;46.90;25.10;;;;;;;6.87;85.02;100855.34;104744;1111;79212;-59
2021/04/18 04:15:21;;;;;;;49.90;25.80;;;;;;;6.93;84.64;100864.61;104791;1110;78838;-66
2021/04/18 04:17:26;;;;;;;48.60;26.30;;;;;;;6.96;84.85;100865.16;104776;1111;78860;-66
2021/04/18 04:19:31;;;;;;;48.80;27.00;;;;;;;6.98;84.91;100862.30;104751;1111;79323;-67
2021/04/18 04:21:36;;;;;;;53.70;29.00;;;;;;;6.95;84.91;100863.45;104758;1110;78216;-59
2021/04/18 04:23:44;;;;;;;50.40;26.40;;;;;;;6.90;84.89;100857.72;104743;1111;79200;-58
2021/04/18 04:25:52;;;;;;;51.80;26.50;;;;;;;6.92;85.18;100860.27;104780;1110;77793;-66
2021/04/18 04:27:57;;;;;;;49.50;26.90;;;;;;;6.95;84.72;100852.72;104760;1111;78102;-66
2021/04/18 04:30:03;;;;;;;50.70;28.30;;;;;;;6.99;84.80;100858.63;104774;1110;78076;-58
2021/04/18 04:32:09;;;;;;;49.80;27.30;;;;;;;7.04;85.15;100865.23;104771;1110;78302;-58
2021/04/18 04:34:17;;;;;;;52.80;28.80;;;;;;;6.98;84.82;100857.78;104754;1111;77980;-58
2021/04/18 04:36:22;;;;;;;50.00;25.80;;;;;;;6.94;85.01;100863.63;104744;1110;79591;-58
2021/04/18 04:38:27;;;;;;;48.00;27.10;;;;;;;6.90;85.07;100859.55;104774;1111;77364;-59
2021/04/18 04:40:35;;;;;;;51.10;27.60;;;;;;;6.95;84.96;100862.64;104750;1111;77259;-59
2021/04/18 04:42:41;;;;;;;51.60;27.60;;;;;;;6.99;84.83;100866.69;104740;1110;78835;-58
2021/04/18 04:44:46;;;;;;;52.20;28.40;;;;;;;6.94;85.25;100872.53;104773;1110;77362;-60
2021/04/18 04:46:51;;;;;;;51.80;27.80;;;;;;;6.99;84.96;100869.38;104745;1110;77002;-67
2021/04/18 04:48:56;;;;;;;47.80;25.70;;;;;;;7.05;84.87;100874.13;104777;1110;77328;-67
2021/04/18 04:51:01;;;;;;;46.00;25.70;;;;;;;7.12;84.80;100880.56;104789;1111;77212;-66
2021/04/18 04:53:06;;;;;;;48.50;25.70;;;;;;;7.13;85.15;100876.89;104801;1103;78508;-67
2021/04/18 04:55:15;;;;;;;48.30;27.50;;;;;;;7.14;84.87;100879.41;104726;1111;78838;-59
2021/04/18 04:57:20;;;;;;;46.70;26.40;;;;;;;7.12;84.77;100873.35;104807;1110;78459;-58
2021/04/18 04:59:25;;;;;;;47.20;26.60;;;;;;;7.13;85.21;100866.14;104809;1110;78253;-58
2021/04/18 05:01:30;;;;;;;51.30;27.40;;;;;;;7.21;84.62;100876.95;104738;1110;78919;-67
2021/04/18 05:03:35;;;;;;;46.20;26.10;;;;;;;7.23;84.68;100877.63;104779;1111;77872;-66
2021/04/18 05:05:41;;;;;;;55.70;27.90;;;;;;;7.20;85.02;100875.25;104781;1103;78930;-66
2021/04/18 05:07:46;;;;;;;51.20;29.20;;;;;;;7.26;85.21;100880.01;104789;1111;79558;-66
2021/04/18 05:09:53;;;;;;;46.00;26.80;;;;;;;7.25;84.96;100874.80;104732;1110;78672;-66
2021/04/18 05:12:03;;;;;;;45.50;25.80;;;;;;;7.18;85.30;100879.09;104748;1110;78288;-66
2021/04/18 05:14:08;;;;;;;41.60;24.40;;;;;;;7.27;84.82;100883.55;104762;1111;78189;-66
2021/04/18 05:16:13;;;;;;;42.00;24.50;;;;;;;7.32;84.70;100881.23;104748;1110;77514;-66
2021/04/18 05:18:19;;;;;;;44.60;26.30;;;;;;;7.36;84.94;100877.23;104751;1111;78489;-67
2021/04/18 05:20:24;;;;;;;44.50;25.00;;;;;;;7.29;84.77;100877.01;104739;1110;79119;-59
2021/04/18 05:22:29;;;;;;;44.90;25.90;;;;;;;7.28;84.91;100885.24;104804;1111;76982;-59
2021/04/18 05:24:34;;;;;;;43.80;25.30;;;;;;;7.26;84.67;100887.22;104795;1110;77746;-58
2021/04/18 05:26:39;;;;;;;47.00;26.30;;;;;;;7.30;84.79;100883.23;104730;1110;76984;-66
2021/04/18 05:28:44;;;;;;;43.20;25.30;;;;;;;7.33;84.82;100883.77;104784;1110;79716;-67
2021/04/18 05:30:49;;;;;;;45.80;26.40;;;;;;;7.38;84.83;100878.77;104781;1111;77047;-66
2021/04/18 05:32:54;;;;;;;47.00;26.90;;;;;;;7.45;84.88;100897.78;104756;1103;78272;-66
2021/04/18 05:34:59;;;;;;;51.20;27.00;;;;;;;7.50;84.98;100890.93;104775;1110;79041;-66
2021/04/18 05:37:05;;;;;;;44.10;25.20;;;;;;;7.53;84.73;100885.24;104794;1111;77612;-67
2021/04/18 05:39:13;;;;;;;49.00;25.90;;;;;;;7.57;84.83;100891.16;104807;1110;77504;-67
2021/04/18 05:41:18;;;;;;;44.10;25.00;;;;;;;7.60;84.77;100886.31;104736;1111;77228;-66
2021/04/18 05:43:25;;;;;;;49.10;26.80;;;;;;;7.66;84.95;100891.03;104731;1103;78871;-67
2021/04/18 05:45:30;;;;;;;44.40;26.50;;;;;;;7.74;84.80;100892.95;104909;1103;77719;-59
2021/04/18 05:47:35;;;;;;;52.90;29.30;;;;;;;7.74;84.84;100895.64;104785;1110;78184;-59
2021/04/18 05:49:40;;;;;;;45.60;26.50;;;;;;;7.62;84.89;100894.20;104736;1110;76838;-58
2021/04/18 05:51:48;;;;;;;55.40;29.50;;;;;;;7.60;84.79;100894.38;104738;1110;78153;-67
2021/04/18 05:53:55;;;;;;;54.10;29.80;;;;;;;7.62;84.84;100899.59;104884;1103;76723;-67
2021/04/18 05:56:00;;;;;;;50.50;27.70;;;;;;;7.65;85.01;100899.27;104832;1111;77937;-58
2021/04/18 05:58:06;;;;;;;51.60;28.60;;;;;;;7.65;84.93;100901.96;104807;1110;77510;-58
2021/04/18 06:00:14;;;;;;;51.10;29.60;;;;;;;7.67;84.97;100900.80;104776;1110;79063;-67
2021/04/18 06:02:19;;;;;;;50.20;29.30;;;;;;;7.66;84.88;100895.59;104732;1110;76872;-66
2021/04/18 06:04:24;;;;;;;52.30;28.30;;;;;;;7.69;85.07;100898.78;104764;1110;77249;-66
2021/04/18 06:06:30;;;;;;;51.40;29.40;;;;;;;7.76;84.87;100890.94;104766;1110;77986;-58
2021/04/18 06:08:35;;;;;;;48.70;27.40;;;;;;;7.91;84.57;100894.70;104752;1110;77229;-58
2021/04/18 06:10:40;;;;;;;52.30;28.00;;;;;;;7.96;85.11;100892.41;104771;1111;77733;-61
2021/04/18 06:12:45;;;;;;;41.40;24.40;;;;;;;7.99;84.84;100894.78;104819;1110;78204;-59
2021/04/18 06:14:54;;;;;;;50.60;28.50;;;;;;;7.91;85.06;100889.33;104750;1110;78663;-71
2021/04/18 06:16:59;;;;;;;53.30;30.60;;;;;;;8.12;84.75;100897.02;104770;1110;77485;-74
2021/04/18 06:19:04;;;;;;;56.30;29.50;;;;;;;8.15;84.70;100902.92;104820;1110;78693;-66
2021/04/18 06:21:09;;;;;;;54.60;29.10;;;;;;;8.32;84.61;100894.95;104735;1110;77779;-60
2021/04/18 06:23:14;;;;;;;47.80;29.30;;;;;;;8.41;84.71;100902.88;104820;1111;77196;-60
2021/04/18 06:25:22;;;;;;;49.10;28.90;;;;;;;8.57;84.77;100892.14;104805;1110;76994;-69
2021/04/18 06:27:27;;;;;;;46.10;26.40;;;;;;;8.73;84.33;100902.14;104811;1110;78533;-69
2021/04/18 06:29:36;;;;;;;42.60;26.00;;;;;;;8.80;84.48;100900.45;104739;1110;77885;-69
2021/04/18 06:31:44;;;;;;;46.20;27.30;;;;;;;8.84;84.11;100894.56;104758;1110;78045;-70
2021/04/18 06:33:52;;;;;;;46.00;26.40;;;;;;;8.88;83.85;100895.08;104717;1110;76824;-69
2021/04/18 06:35:57;;;;;;;44.10;25.80;;;;;;;8.90;84.01;100898.44;104751;1110;78890;-69
2021/04/18 06:38:05;;;;;;;45.10;26.40;;;;;;;9.03;83.91;100900.66;104753;1110;78234;-69
2021/04/18 06:40:13;;;;;;;47.60;27.70;;;;;;;9.13;83.97;100899.48;104781;1110;78749;-59
2021/04/18 06:42:22;;;;;;;47.30;28.00;;;;;;;9.25;84.07;100894.61;104754;1110;78392;-59
2021/04/18 06:44:28;;;;;;;48.00;28.00;;;;;;;9.45;83.78;100894.08;104887;1103;78255;-60
2021/04/18 06:46:36;;;;;;;52.30;28.90;;;;;;;9.56;83.64;100906.37;104778;1110;78027;-59
2021/04/18 06:48:43;;;;;;;46.70;26.90;;;;;;;9.53;83.25;100906.73;104783;1111;77490;-59
2021/04/18 06:50:54;;;;;;;46.50;27.80;;;;;;;9.58;83.60;100904.37;104892;1103;78801;-70
2021/04/18 06:53:00;;;;;;;49.00;28.50;;;;;;;9.63;83.51;100899.30;104784;1111;78522;-70
2021/04/18 06:55:08;;;;;;;51.80;30.10;;;;;;;9.73;83.42;100907.19;104747;1103;77595;-69
2021/04/18 06:57:16;;;;;;;53.10;29.80;;;;;;;9.74;83.57;100898.94;104750;1110;77703;-70
2021/04/18 06:59:21;;;;;;;51.90;29.60;;;;;;;10.21;83.70;100890.06;104756;1111;77458;-69
2021/04/18 07:01:27;;;;;;;49.00;27.90;;;;;;;10.73;83.62;100896.55;104771;1110;78196;-70
2021/04/18 07:03:32;;;;;;;46.40;27.60;;;;;;;11.15;82.94;100896.91;104757;1110;77928;-71
2021/04/18 07:05:44;;;;;;;41.30;24.60;;;;;;;11.44;82.47;100895.33;104762;1110;78034;-59
2021/04/18 07:07:50;;;;;;;32.10;22.40;;;;;;;11.64;81.29;100894.64;104787;1111;78136;-60
2021/04/18 07:09:56;;;;;;;32.90;22.20;;;;;;;11.61;81.41;100899.58;104770;1110;78316;-70
2021/04/18 07:12:08;;;;;;;35.70;23.10;;;;;;;11.45;80.93;100905.14;104842;1111;78631;-71
2021/04/18 07:14:24;;;;;;;32.50;22.40;;;;;;;11.45;80.52;100897.02;104769;1110;78696;-72
2021/04/18 07:16:30;;;;;;;31.80;21.90;;;;;;;11.52;80.27;100898.80;104773;1110;78526;-71
2021/04/18 07:18:40;;;;;;;33.40;22.90;;;;;;;11.60;80.48;100903.30;104766;1110;78051;-71
2021/04/18 07:20:55;;;;;;;37.00;22.80;;;;;;;11.72;79.96;100896.45;104799;1111;77957;-59
2021/04/18 07:23:29;;;;;;;30.40;20.80;;;;;;;11.79;80.13;100894.67;104808;1111;78307;-59
2021/04/18 07:25:34;;;;;;;31.20;21.40;;;;;;;11.99;80.09;100901.23;104770;1110;78256;-59
2021/04/18 07:27:48;;;;;;;29.30;21.10;;;;;;;12.19;79.98;100902.38;104710;1110;77631;-58
2021/04/18 07:29:59;;;;;;;26.50;19.20;;;;;;;12.36;79.31;100897.59;104776;1111;77656;-59
2021/04/18 07:32:20;;;;;;;30.30;20.50;;;;;;;12.54;79.16;100906.16;104803;1103;78560;-59
2021/04/18 07:34:27;;;;;;;34.00;22.80;;;;;;;12.62;78.72;100902.48;104726;1110;76961;-59
2021/04/18 07:36:34;;;;;;;36.10;24.40;;;;;;;12.61;78.39;100901.64;104787;1111;78587;-70
2021/04/18 07:38:39;;;;;;;40.00;26.80;;;;;;;12.83;78.14;100916.07;104777;1110;77052;-71
2021/04/18 07:40:45;;;;;;;41.00;27.90;;;;;;;13.10;77.52;100909.96;104802;1106;78674;-60
2021/04/18 07:42:50;;;;;;;38.60;24.60;;;;;;;14.11;78.81;100909.53;104775;1110;78684;-59
2021/04/18 07:44:57;;;;;;;37.90;25.00;;;;;;;16.80;78.65;100905.17;104736;1110;78560;-73
2021/04/18 07:47:03;;;;;;;39.00;26.30;;;;;;;18.38;74.29;100895.68;104786;1111;77787;-71
2021/04/18 07:49:11;;;;;;;38.10;26.00;;;;;;;19.48;71.67;100886.20;104882;1103;78237;-71
2021/04/18 07:51:17;;;;;;;31.30;24.30;;;;;;;19.57;67.24;100884.80;105456;1107;77807;-71
2021/04/18 07:53:23;;;;;;;34.90;27.80;;;;;;;19.33;66.74;100883.89;105487;1108;78356;-59
2021/04/18 07:55:32;;;;;;;37.20;27.40;;;;;;;18.87;65.78;100884.55;105503;1102;77090;-70
2021/04/18 07:57:38;;;;;;;35.50;26.90;;;;;;;18.88;66.07;100882.66;105438;1108;78554;-70
2021/04/18 07:59:43;;;;;;;34.30;26.00;;;;;;;18.96;65.45;100883.17;105449;1108;79519;-70
2021/04/18 08:01:50;;;;;;;37.70;25.80;;;;;;;18.67;65.13;100884.84;105447;1108;78707;-73
2021/04/18 08:03:56;;;;;;;32.80;24.50;;;;;;;17.98;63.57;100889.81;105431;1108;77450;-72
2021/04/18 08:06:01;;;;;;;30.60;23.30;;;;;;;17.08;63.37;100893.89;105445;1108;77635;-58
2021/04/18 08:08:10;;;;;;;31.00;23.50;;;;;;;16.40;64.12;100893.55;105416;1108;77107;-58
2021/04/18 08:10:25;;;;;;;32.10;24.30;;;;;;;16.16;63.99;100899.70;105451;1108;78374;-58
2021/04/18 08:12:31;;;;;;;30.50;23.50;;;;;;;16.00;64.88;100888.42;105422;1108;80087;-58
2021/04/18 08:14:38;;;;;;;31.00;24.70;;;;;;;15.80;65.31;100886.56;105429;1108;76856;-58
2021/04/18 08:16:42;;;;;;;29.40;22.50;;;;;;;15.52;65.07;100888.66;105423;1108;78149;-71
2021/04/18 08:18:48;;;;;;;28.50;21.60;;;;;;;15.38;65.55;100889.70;105413;1107;76912;-72
2021/04/18 08:20:53;;;;;;;26.90;21.00;;;;;;;15.14;65.67;100891.13;105449;1107;77796;-60
2021/04/18 08:23:08;;;;;;;29.50;22.20;;;;;;;15.35;66.05;100884.67;105492;1107;78122;-58
2021/04/18 08:25:15;;;;;;;29.90;22.60;;;;;;;15.18;66.23;100889.68;105436;1107;79281;-59
2021/04/18 08:27:20;;;;;;;24.20;19.10;;;;;;;15.22;64.95;100890.08;105473;1107;78470;-71
2021/04/18 08:29:25;;;;;;;23.10;19.00;;;;;;;14.78;64.83;100892.52;105428;1108;78109;-69
2021/04/18 08:31:32;;;;;;;26.40;20.40;;;;;;;14.41;65.54;100899.27;105398;1108;78939;-69
2021/04/18 08:33:50;;;;;;;26.60;20.80;;;;;;;14.30;66.29;100900.64;105422;1108;78060;-70
2021/04/18 08:36:12;;;;;;;32.90;23.60;;;;;;;14.35;66.50;100900.06;105455;1107;78923;-59
2021/04/18 08:38:20;;;;;;;31.40;21.80;;;;;;;14.23;67.00;100898.94;105452;1108;78882;-58
2021/04/18 08:40:32;;;;;;;31.10;22.30;;;;;;;14.10;67.05;100902.41;105416;1108;77607;-58
2021/04/18 08:42:40;;;;;;;30.30;21.30;;;;;;;13.87;66.40;100889.08;105461;1108;78044;-71
2021/04/18 08:44:47;;;;;;;29.80;22.30;;;;;;;13.76;67.55;100897.78;105507;1101;78462;-72
2021/04/18 08:46:55;;;;;;;29.30;21.90;;;;;;;13.74;68.10;100893.59;105478;1108;77977;-72
2021/04/18 08:49:00;;;;;;;25.80;20.50;;;;;;;14.17;68.01;100895.96;105515;1101;76939;-71
2021/04/18 08:51:09;;;;;;;29.40;22.10;;;;;;;14.08;67.65;100894.47;105478;1108;79199;-71
2021/04/18 08:53:14;;;;;;;33.50;24.40;;;;;;;13.95;66.83;100898.98;105464;1108;77397;-72
2021/04/18 08:55:19;;;;;;;31.30;23.50;;;;;;;14.35;67.95;100897.34;105507;1107;78557;-71
2021/04/18 08:57:27;;;;;;;33.50;25.40;;;;;;;15.04;68.40;100889.85;105445;1101;78519;-71
2021/04/18 08:59:33;;;;;;;33.90;25.50;;;;;;;15.64;66.87;100899.77;105446;1108;78927;-71
2021/04/18 09:01:38;;;;;;;33.90;25.60;;;;;;;15.41;65.52;100888.45;105436;1108;77679;-71
2021/04/18 09:04:03;;;;;;;31.80;22.90;;;;;;;15.15;65.75;100897.41;105452;1108;78925;-72
2021/04/18 09:06:17;;;;;;;28.60;22.50;;;;;;;15.38;65.94;100894.30;105440;1108;78239;-71
2021/04/18 09:08:22;;;;;;;28.80;21.90;;;;;;;16.41;65.67;100899.84;105425;1108;78208;-72
2021/04/18 09:10:27;;;;;;;24.50;19.80;;;;;;;16.88;66.06;100895.89;105445;1108;78636;-70
2021/04/18 09:12:35;;;;;;;30.60;22.70;;;;;;;17.98;64.92;100884.34;105441;1108;77529;-77
2021/04/18 09:14:47;;;;;;;27.50;20.70;;;;;;;18.73;62.22;100883.09;105443;1108;78480;-71
2021/04/18 09:16:53;;;;;;;23.50;18.90;;;;;;;19.25;62.29;100876.86;105470;1108;77845;-70
2021/04/18 09:19:26;;;;;;;27.40;20.10;;;;;;;18.77;59.67;100887.02;105458;1108;78234;-72
2021/04/18 09:21:31;;;;;;;24.60;19.40;;;;;;;18.34;59.53;100887.11;105453;1108;78129;-58
2021/04/18 09:23:57;;;;;;;21.20;18.50;;;;;;;18.45;58.82;100888.25;105449;1108;78803;-59
2021/04/18 09:26:12;;;;;;;21.80;18.30;;;;;;;19.07;58.74;100890.59;105421;1108;77716;-59
2021/04/18 09:28:17;;;;;;;20.00;16.90;;;;;;;19.56;56.46;100888.63;104915;1108;78459;-59
2021/04/18 09:30:26;;;;;;;24.40;21.20;;;;;;;19.48;54.76;100888.94;105432;1108;77278;-60
2021/04/18 09:32:34;;;;;;;20.60;17.00;;;;;;;19.12;56.62;100882.52;105457;1108;78071;-60
2021/04/18 09:34:42;;;;;;;20.00;16.70;;;;;;;18.98;56.01;100881.03;105475;1108;78782;-60